Kendricktown, Missouri
Current Conditions -  °F | °C
As of 11:01 AM on Saturday 20 Dec 2014 (Local Time) from KJLN Reporting Station
Broken Clouds Broken Clouds  
Wind Chill: 38°   Ceiling: 1700
Heat Index: 41°   Visibility: 10mi
Dew Point: 34°   Wind: 5mph
Humidity: 76%   Direction: 220°SW
Pressure: 30.24"   Gusts: NA
Location:  37.1542°N, 94.2882°W
Report Text: KJLN 201701Z 22004KT 10SM BKN017 05/01 A3024 RMK AO2 T00500011
Loading
Personal Weather Stations






























Interactive Weather Map New forecast layout! Learn more

10-Day Weather Forecast

Advertisements
Track Severe Weather on mobile